Overview Statistics Trail Chart Weather Telemetry Raw packets
 

This is the latest recevied weather packets stored in our database for station/object N7BTW-13. If no packets are shown the sender has not sent any weather packets the latest 10 day(s).

<< 33 34 35 36 37 38 39 >>
Time Temp. Humidity Pressure Rain* Wind** Luminosity Snow
1788131107 26.11° C 46% - 0 mm - - -
1788130506 26.67° C 45% - 0 mm - - -
1788129907 27.22° C 44% - 0 mm - - -
1788129307 25.56° C 46% - 0 mm - - -
1788128706 26.67° C 44% - 0 mm - - -
1788128107 26.11° C 46% - 0 mm - - -
1788127507 26.11° C 46% - 0 mm - - -
1788126908 - - - 0 mm - - -
1788123606 24.44° C 48% - 0 mm - - -
1788123007 25° C 47% - 0 mm - - -
1788122406 23.33° C 51% - 0 mm - - -
1788121808 23.33° C 50% - 0 mm - - -
1788121207 22.78° C 52% - 0 mm - - -
1788120606 23.89° C 48% - 0 mm - - -
1788120010 24.44° C 48% - 0 mm - - -
1788119406 23.89° C 49% - 0 mm - - -
1788118806 23.33° C 51% - 0 mm - - -
1788118207 22.78° C 51% - 0 mm - - -
1788117606 23.33° C 49% - 0 mm - - -
1788117009 22.78° C 51% - 0 mm - - -
1788116406 22.22° C 53% - 0 mm - - -
1788115807 21.67° C 54% - 0 mm - - -
1788115206 22.78° C 51% - 0 mm - - -
1788114607 22.78° C 53% - 0 mm - - -
1788114007 21.67° C 55% - 0 mm - - -

* Rain latest hour (hover to see other rain measurements)
** Current wind speed in m/s (hover to see current wind gust speed)